Glyndon, Maryland
Current Conditions -  °F | °C
As of 11:20 PM on Tuesday 27 Jan 2015 (Local Time) from KDMW Reporting Station
Scattered Clouds Scattered Clouds  
Wind Chill: 13°   Ceiling: Unl
Heat Index: 23°   Visibility: 10mi
Dew Point: 10°   Wind: 9mph
Humidity: 59%   Direction: 330°NNW
Pressure: 29.93"   Gusts: NA
Location:  39.48°N, 76.82°W
Report Text: KDMW 280420Z AUTO 33008KT 10SM SCT090 M05/M12 A2993 RMK AO2
Loading
Personal Weather Stations






























Interactive Weather Map New forecast layout! Learn more

10-Day Weather Forecast

Advertisements
Track Severe Weather on mobile